Time;durP1;ratioP1;P1;durP2;ratioP2;P2;SDS_P1;SDS_P2;PMS_P1;PMS_P2;Temp;Humidity;BMP_temperature;BMP_pressure;BME280_temperature;BME280_humidity;BME280_pressure;Samples;Min_cycle;Max_cycle;Signal;HPM_P1;HPM_P2
2023/08/19 00:00:58;;;;;;;31.92;28.67;;;;;;;22.63;100.00;101048.16;5116171;28;20378;-67
2023/08/19 00:03:24;;;;;;;31.50;28.23;;;;;;;22.58;100.00;101042.38;5115987;27;20543;-67
2023/08/19 00:05:49;;;;;;;32.20;29.08;;;;;;;22.49;100.00;101048.81;5116179;28;20027;-67
2023/08/19 00:08:15;;;;;;;30.02;27.02;;;;;;;22.59;100.00;101044.06;5115674;28;20024;-67
2023/08/19 00:10:41;;;;;;;31.42;28.30;;;;;;;22.64;100.00;101038.97;5114199;28;20085;-66
2023/08/19 00:13:07;;;;;;;30.58;27.50;;;;;;;22.47;100.00;101040.84;5116067;28;20451;-67
2023/08/19 00:15:33;;;;;;;31.20;28.38;;;;;;;22.47;100.00;101040.00;5114217;28;20028;-67
2023/08/19 00:18:00;;;;;;;30.73;27.63;;;;;;;22.58;100.00;101040.50;5114672;28;20031;-67
2023/08/19 00:20:29;;;;;;;30.13;27.23;;;;;;;22.45;100.00;101038.31;5115633;28;20061;-66
2023/08/19 00:22:58;;;;;;;31.85;28.45;;;;;;;22.49;100.00;101035.28;5115423;28;20119;-66
2023/08/19 00:25:27;;;;;;;30.65;27.52;;;;;;;22.41;100.00;101034.28;5115063;28;20049;-67
2023/08/19 00:27:52;;;;;;;;;;;;;;;22.61;100.00;101040.16;5116142;28;20080;-67
2023/08/19 00:30:18;;;;;;;30.92;28.05;;;;;;;22.45;100.00;101032.91;5114091;28;19911;-67
2023/08/19 00:32:44;;;;;;;30.70;27.85;;;;;;;22.44;100.00;101035.78;5115448;28;20027;-67
2023/08/19 00:35:12;;;;;;;29.65;27.02;;;;;;;22.48;100.00;101036.31;5114123;28;20445;-67
2023/08/19 00:37:39;;;;;;;29.77;26.90;;;;;;;22.39;100.00;101032.75;5114083;28;20502;-67
2023/08/19 00:40:09;;;;;;;28.88;26.17;;;;;;;22.31;100.00;101030.03;5114850;28;20027;-67
2023/08/19 00:42:34;;;;;;;30.17;27.27;;;;;;;22.39;100.00;101044.44;5114041;28;20458;-67
2023/08/19 00:45:00;;;;;;;30.40;27.33;;;;;;;22.38;100.00;101037.31;5115061;28;20086;-67
2023/08/19 00:47:25;;;;;;;29.70;26.98;;;;;;;22.41;100.00;101047.81;5115242;28;20043;-67
2023/08/19 00:49:51;;;;;;;27.05;24.35;;;;;;;22.36;100.00;101047.47;5114758;28;20101;-67
2023/08/19 00:52:21;;;;;;;26.80;24.27;;;;;;;22.41;100.00;101045.13;5113529;28;20027;-67
2023/08/19 00:54:47;;;;;;;29.38;26.45;;;;;;;22.30;100.00;101036.47;5114385;28;20032;-67
2023/08/19 00:57:12;;;;;;;28.50;25.90;;;;;;;22.28;100.00;101035.78;5114978;28;20030;-67
2023/08/19 00:59:38;;;;;;;29.48;26.33;;;;;;;22.37;100.00;101040.19;5114977;28;20054;-67
2023/08/19 01:02:06;;;;;;;27.38;24.80;;;;;;;22.38;100.00;101029.19;5113682;28;20023;-67
2023/08/19 01:04:32;;;;;;;27.52;24.85;;;;;;;22.40;100.00;101029.00;5114540;28;20019;-67
2023/08/19 01:07:11;;;;;;;27.75;25.02;;;;;;;22.40;100.00;101026.28;5113608;28;20023;-67
2023/08/19 01:09:56;;;;;;;26.85;24.33;;;;;;;22.38;100.00;101020.19;5114341;28;20032;-67
2023/08/19 01:12:38;;;;;;;25.55;23.15;;;;;;;22.38;100.00;101021.06;5113511;28;20118;-67
2023/08/19 01:15:09;;;;;;;27.58;24.85;;;;;;;22.31;100.00;101028.16;5114227;28;20049;-67
2023/08/19 01:17:38;;;;;;;25.85;23.45;;;;;;;22.35;100.00;101025.94;5114472;28;20501;-67
2023/08/19 01:20:05;;;;;;;24.90;22.55;;;;;;;22.40;100.00;101027.13;5114116;28;20024;-67
2023/08/19 01:22:55;;;;;;;26.33;23.65;;;;;;;22.32;100.00;101010.88;5114126;28;20051;-67
2023/08/19 01:25:22;;;;;;;24.88;22.65;;;;;;;22.40;100.00;101023.59;5113770;28;20363;-67
2023/08/19 01:27:47;;;;;;;24.55;22.50;;;;;;;22.41;100.00;101017.13;5112973;28;20015;-67
2023/08/19 01:30:14;;;;;;;23.92;21.42;;;;;;;22.39;100.00;101016.47;5112836;28;20331;-67
2023/08/19 01:32:40;;;;;;;24.70;21.90;;;;;;;22.41;100.00;101009.00;5114227;27;20099;-67
2023/08/19 01:35:06;;;;;;;23.98;21.55;;;;;;;22.43;100.00;101005.09;5113855;28;20023;-67
2023/08/19 01:37:50;;;;;;;23.02;21.00;;;;;;;22.42;100.00;101000.72;5114010;27;20485;-67
2023/08/19 01:40:16;;;;;;;23.02;20.63;;;;;;;22.44;100.00;100993.28;5112253;28;20098;-67
2023/08/19 01:42:42;;;;;;;23.88;21.42;;;;;;;22.38;100.00;100988.53;5113981;28;20106;-67
2023/08/19 01:45:09;;;;;;;21.88;19.25;;;;;;;22.37;100.00;100997.66;5112427;28;20561;-67
2023/08/19 01:47:38;;;;;;;21.17;19.15;;;;;;;22.35;100.00;100996.97;5113812;28;20027;-67
2023/08/19 01:50:08;;;;;;;20.85;18.95;;;;;;;22.43;100.00;100994.28;5113318;28;20023;-67
2023/08/19 01:52:33;;;;;;;21.25;19.05;;;;;;;22.39;100.00;100989.38;5112419;28;20062;-67
2023/08/19 01:54:59;;;;;;;20.83;18.83;;;;;;;22.44;100.00;100989.69;5111740;28;20043;-67
2023/08/19 01:57:27;;;;;;;19.38;17.67;;;;;;;22.41;100.00;100988.19;5113586;28;20035;-67
2023/08/19 01:59:56;;;;;;;21.25;17.90;;;;;;;22.50;100.00;100990.88;5112264;28;20030;-67
2023/08/19 02:02:25;;;;;;;19.95;17.85;;;;;;;22.47;100.00;100992.06;5112000;28;20027;-67
2023/08/19 02:04:51;;;;;;;19.30;17.33;;;;;;;22.41;100.00;100981.91;5112390;28;20020;-67
2023/08/19 02:07:16;;;;;;;19.02;16.90;;;;;;;22.35;100.00;100971.75;5112068;28;20526;-67
2023/08/19 02:09:44;;;;;;;20.35;16.90;;;;;;;22.38;100.00;100991.25;5111421;28;20556;-67
2023/08/19 02:12:09;;;;;;;20.88;17.02;;;;;;;22.43;100.00;100982.59;5112200;28;20067;-67
2023/08/19 02:14:38;;;;;;;18.15;16.33;;;;;;;22.35;100.00;100978.00;5111587;28;20027;-67
2023/08/19 02:17:03;;;;;;;16.63;15.07;;;;;;;22.43;100.00;100978.00;5111797;28;20152;-67
2023/08/19 02:19:29;;;;;;;16.60;14.93;;;;;;;22.40;100.00;100972.09;5113051;28;20486;-67
2023/08/19 02:21:54;;;;;;;17.50;15.70;;;;;;;22.41;100.00;100977.34;5111749;28;20060;-67
2023/08/19 02:24:19;;;;;;;16.02;14.65;;;;;;;22.39;100.00;100962.28;5111199;28;20026;-67
2023/08/19 02:26:45;;;;;;;16.38;14.93;;;;;;;22.37;100.00;100973.28;5112944;28;20042;-67
2023/08/19 02:29:10;;;;;;;16.30;14.90;;;;;;;22.38;100.00;100969.56;5111608;28;20053;-67
2023/08/19 02:31:38;;;;;;;16.23;14.75;;;;;;;22.43;100.00;100963.63;5111721;28;20024;-67
2023/08/19 02:34:04;;;;;;;16.63;15.02;;;;;;;22.42;100.00;100962.78;5111635;28;20024;-67
2023/08/19 02:36:31;;;;;;;16.52;14.98;;;;;;;22.32;100.00;100953.97;5112929;28;20042;-67
2023/08/19 02:38:57;;;;;;;15.77;14.27;;;;;;;22.36;100.00;100966.16;5112415;28;20011;-67
2023/08/19 02:41:23;;;;;;;16.73;15.18;;;;;;;22.38;100.00;100965.97;5111582;28;20103;-67
2023/08/19 02:43:50;;;;;;;17.13;15.52;;;;;;;22.34;100.00;100962.78;5112697;28;20030;-67
2023/08/19 02:46:16;;;;;;;16.60;14.90;;;;;;;22.41;100.00;100960.22;5112552;28;20483;-67
2023/08/19 02:48:41;;;;;;;15.82;14.43;;;;;;;22.30;100.00;100950.59;5111124;28;20026;-67
2023/08/19 02:51:07;;;;;;;15.40;13.85;;;;;;;22.35;100.00;100959.03;5112984;28;20480;-67
2023/08/19 02:53:32;;;;;;;15.20;13.88;;;;;;;22.39;100.00;100962.28;5112071;28;20015;-67
2023/08/19 02:55:58;;;;;;;16.15;14.52;;;;;;;22.33;100.00;100958.38;5112540;28;20020;-67
2023/08/19 02:58:24;;;;;;;15.77;14.15;;;;;;;22.35;100.00;100955.47;5112647;28;20031;-67
2023/08/19 03:00:50;;;;;;;16.05;14.45;;;;;;;22.30;100.00;100952.47;5112334;28;20043;-67
2023/08/19 03:03:15;;;;;;;16.08;14.48;;;;;;;22.39;100.00;100956.84;5111313;28;20474;-67
2023/08/19 03:05:41;;;;;;;14.98;13.57;;;;;;;22.29;100.00;100954.31;5112382;28;20375;-67
2023/08/19 03:08:08;;;;;;;15.15;13.65;;;;;;;22.30;100.00;100950.59;5111462;28;20027;-67
2023/08/19 03:10:34;;;;;;;16.02;14.52;;;;;;;22.29;100.00;100958.88;5111878;28;20074;-67
2023/08/19 03:13:00;;;;;;;15.63;14.27;;;;;;;22.29;100.00;100948.03;5112593;27;20108;-67
2023/08/19 03:15:26;;;;;;;14.48;13.20;;;;;;;22.22;100.00;100948.72;5111286;28;20068;-67
2023/08/19 03:17:51;;;;;;;15.63;14.05;;;;;;;22.19;100.00;100949.06;5117967;28;20023;-67
2023/08/19 03:20:17;;;;;;;14.50;13.20;;;;;;;22.21;100.00;100941.63;5119127;27;20530;-67
2023/08/19 03:22:42;;;;;;;14.73;13.38;;;;;;;22.23;100.00;100936.03;5117699;28;20055;-67
2023/08/19 03:25:08;;;;;;;16.33;14.63;;;;;;;22.19;100.00;100948.22;5118997;28;20015;-67
2023/08/19 03:27:34;;;;;;;15.27;13.75;;;;;;;22.29;100.00;100948.03;5118132;28;20632;-67
2023/08/19 03:29:59;;;;;;;15.20;13.85;;;;;;;22.26;100.00;100945.66;5119114;28;20030;-67
2023/08/19 03:32:25;;;;;;;15.38;12.63;;;;;;;22.30;100.00;100952.47;5119379;27;20030;-67
2023/08/19 03:34:52;;;;;;;15.00;13.68;;;;;;;22.19;100.00;100937.38;5119085;27;20102;-67
2023/08/19 03:37:21;;;;;;;14.43;13.00;;;;;;;22.19;100.00;100946.34;5119340;27;20466;-67
2023/08/19 03:39:46;;;;;;;13.95;12.73;;;;;;;22.20;100.00;100939.91;5118599;27;20051;-67
2023/08/19 03:42:11;;;;;;;14.65;12.48;;;;;;;22.20;100.00;100949.91;5119311;28;20421;-67
2023/08/19 03:44:37;;;;;;;13.68;12.52;;;;;;;22.21;100.00;100954.34;5118994;28;20011;-67
2023/08/19 03:47:02;;;;;;;14.30;12.85;;;;;;;22.18;100.00;100954.66;5117816;28;20377;-67
2023/08/19 03:49:28;;;;;;;14.88;13.15;;;;;;;22.19;100.00;100950.94;5117560;28;20059;-67
2023/08/19 03:51:53;;;;;;;13.77;12.52;;;;;;;22.14;100.00;100950.56;5119223;27;20027;-67
2023/08/19 03:54:18;;;;;;;15.77;12.40;;;;;;;22.19;100.00;100948.22;5118472;28;20031;-67
2023/08/19 03:56:44;;;;;;;13.98;12.52;;;;;;;22.15;100.00;100939.56;5118969;28;20427;-67
2023/08/19 03:59:09;;;;;;;13.77;12.35;;;;;;;22.16;100.00;100962.09;5118890;28;20019;-67
2023/08/19 04:01:34;;;;;;;13.93;12.65;;;;;;;22.20;100.00;100960.75;5117682;28;20525;-67
2023/08/19 04:04:00;;;;;;;13.90;12.52;;;;;;;22.19;100.00;100959.91;5118949;28;20027;-67
2023/08/19 04:06:25;;;;;;;13.85;12.13;;;;;;;22.04;100.00;100930.94;5117638;28;20068;-67
2023/08/19 04:08:51;;;;;;;13.18;11.90;;;;;;;22.19;100.00;100951.78;5118254;28;20034;-67
2023/08/19 04:11:16;;;;;;;14.07;12.50;;;;;;;22.19;100.00;100956.34;5117631;28;20027;-67
2023/08/19 04:13:41;;;;;;;13.50;12.15;;;;;;;22.13;100.00;100946.16;5118392;28;20029;-67
2023/08/19 04:16:07;;;;;;;14.43;12.95;;;;;;;22.14;100.00;100962.22;5119181;27;20106;-67
2023/08/19 04:18:34;;;;;;;14.38;11.57;;;;;;;22.13;100.00;100967.84;5100142;28;20061;-67
2023/08/19 04:21:06;;;;;;;13.10;11.80;;;;;;;22.20;100.00;100967.00;5118830;27;20016;-66
2023/08/19 04:23:32;;;;;;;16.35;12.70;;;;;;;22.17;100.00;100956.50;5118005;27;20052;-66
2023/08/19 04:25:58;;;;;;;13.15;11.75;;;;;;;22.19;100.00;100961.78;5118796;27;20027;-66
2023/08/19 04:28:23;;;;;;;12.63;11.30;;;;;;;22.18;100.00;100965.50;5114207;28;20030;-66
2023/08/19 04:30:49;;;;;;;13.35;12.05;;;;;;;22.22;100.00;100964.13;5114222;28;20020;-66
2023/08/19 04:33:14;;;;;;;15.13;11.88;;;;;;;22.21;100.00;100965.16;5114238;28;20454;-67
2023/08/19 04:35:40;;;;;;;14.38;11.35;;;;;;;22.28;100.00;100966.16;5114143;28;20032;-67
2023/08/19 04:38:06;;;;;;;13.57;11.07;;;;;;;22.19;100.00;100962.63;5115595;27;20023;-67
2023/08/19 04:40:31;;;;;;;12.45;10.70;;;;;;;22.28;100.00;100974.28;5114746;28;20027;-67
2023/08/19 04:43:00;;;;;;;15.45;11.68;;;;;;;22.30;100.00;100976.84;5115155;28;20095;-67
2023/08/19 04:45:25;;;;;;;;;;;;;;;22.37;100.00;100975.13;5115543;28;20467;-67
2023/08/19 04:47:51;;;;;;;12.13;10.73;;;;;;;22.30;100.00;100972.28;5113897;28;19957;-67
2023/08/19 04:50:16;;;;;;;13.40;11.38;;;;;;;22.37;100.00;100975.13;5114939;28;20027;-67
2023/08/19 04:52:42;;;;;;;13.63;10.60;;;;;;;22.26;100.00;100965.47;5114890;28;20035;-67
2023/08/19 04:55:10;;;;;;;13.32;10.85;;;;;;;22.26;100.00;100965.47;5114754;28;20023;-67
2023/08/19 04:57:37;;;;;;;12.55;10.43;;;;;;;22.25;100.00;100958.38;5114928;28;20432;-67
2023/08/19 05:00:03;;;;;;;11.57;10.40;;;;;;;;;;5114843;28;20030;-67
2023/08/19 05:02:29;;;;;;;12.80;10.68;;;;;;;22.34;100.00;100970.06;5113627;28;20059;-67
2023/08/19 05:04:54;;;;;;;11.50;10.10;;;;;;;22.36;100.00;100965.31;5114708;28;20215;-67
2023/08/19 05:07:19;;;;;;;13.32;10.52;;;;;;;22.36;100.00;100968.03;5114640;28;20029;-67
2023/08/19 05:09:45;;;;;;;11.45;10.02;;;;;;;22.33;100.00;100961.09;5114298;28;20028;-67
2023/08/19 05:12:13;;;;;;;11.35;10.25;;;;;;;22.36;100.00;100968.03;5113264;28;20074;-67
2023/08/19 05:14:38;;;;;;;11.87;10.57;;;;;;;22.39;99.55;100963.13;5113342;28;20114;-66
2023/08/19 05:17:04;;;;;;;13.45;10.57;;;;;;;22.51;98.78;100977.16;5113330;28;20791;-67
2023/08/19 05:19:31;;;;;;;12.98;9.95;;;;;;;22.51;99.93;100979.88;5113083;28;20028;-67
2023/08/19 05:21:56;;;;;;;13.57;9.13;;;;;;;22.51;99.02;100976.31;5112910;28;20050;-67
2023/08/19 05:24:22;;;;;;;13.52;9.75;;;;;;;22.54;98.73;100978.69;5112595;28;20020;-67
2023/08/19 05:26:47;;;;;;;10.93;9.82;;;;;;;22.50;99.96;100990.88;5114071;28;20037;-67
2023/08/19 05:29:13;;;;;;;12.70;9.68;;;;;;;22.54;100.00;100989.53;5114221;28;20072;-67
2023/08/19 05:31:39;;;;;;;12.57;9.45;;;;;;;22.59;99.07;100981.72;5114505;28;20030;-67
2023/08/19 05:34:06;;;;;;;10.20;9.15;;;;;;;22.56;100.00;100988.34;5114137;28;20382;-67
2023/08/19 05:36:32;;;;;;;12.88;9.80;;;;;;;22.49;100.00;100978.34;5112827;28;20055;-67
2023/08/19 05:38:57;;;;;;;15.38;9.93;;;;;;;22.53;100.00;100982.41;5112964;28;20444;-67
2023/08/19 05:41:23;;;;;;;11.77;9.70;;;;;;;22.53;99.87;100980.56;5113527;28;20033;-66
2023/08/19 05:43:48;;;;;;;11.35;9.50;;;;;;;22.48;99.90;100976.66;5095647;28;20064;-67
2023/08/19 05:46:14;;;;;;;10.85;9.40;;;;;;;22.56;100.00;100992.91;5114045;28;20036;-67
2023/08/19 05:48:41;;;;;;;10.10;9.10;;;;;;;22.53;99.59;100985.09;5112516;28;20016;-67
2023/08/19 05:51:07;;;;;;;12.45;9.75;;;;;;;22.57;99.22;100984.59;5114019;28;20023;-67
2023/08/19 05:53:32;;;;;;;11.25;9.80;;;;;;;22.58;98.90;100982.72;5113471;28;20493;-67
2023/08/19 05:56:00;;;;;;;10.55;9.20;;;;;;;22.66;97.81;100994.41;5113520;28;20027;-67
2023/08/19 05:58:28;;;;;;;12.40;9.65;;;;;;;22.58;100.00;100997.13;5112467;28;20133;-67
2023/08/19 06:01:03;;;;;;;13.52;9.75;;;;;;;22.68;97.98;100995.09;5113796;28;20487;-67
2023/08/19 06:03:28;;;;;;;13.45;9.52;;;;;;;22.61;98.87;100998.66;5113523;28;20049;-67
2023/08/19 06:05:54;;;;;;;14.18;9.80;;;;;;;22.77;96.79;101009.50;5112327;28;20031;-67
2023/08/19 06:08:19;;;;;;;10.93;9.90;;;;;;;22.74;98.24;101006.28;5112224;28;20062;-67
2023/08/19 06:10:45;;;;;;;10.65;9.55;;;;;;;22.80;98.11;101013.72;5112957;28;20398;-67
2023/08/19 06:13:11;;;;;;;12.30;9.50;;;;;;;22.76;98.13;101004.22;5112229;28;20031;-67
2023/08/19 06:15:37;;;;;;;10.15;9.15;;;;;;;22.79;98.66;101006.59;5113466;28;20093;-67
2023/08/19 06:18:02;;;;;;;10.23;9.10;;;;;;;22.78;97.95;101011.16;5113280;28;20028;-67
2023/08/19 06:20:30;;;;;;;11.90;9.18;;;;;;;22.82;97.87;101026.06;5113123;28;20087;-67
2023/08/19 06:22:56;;;;;;;12.88;9.20;;;;;;;22.86;97.56;101021.16;5113127;28;20039;-67
2023/08/19 06:25:21;;;;;;;13.85;9.55;;;;;;;22.86;96.84;101013.88;5112540;28;20367;-67
2023/08/19 06:27:46;;;;;;;9.70;8.70;;;;;;;22.93;96.37;101013.19;5111892;28;20371;-67
2023/08/19 06:30:13;;;;;;;10.18;9.15;;;;;;;23.01;98.28;101032.19;5113179;28;20023;-67
2023/08/19 06:32:38;;;;;;;10.45;9.35;;;;;;;23.07;95.46;101029.63;5111898;28;20016;-67
2023/08/19 06:35:04;;;;;;;10.43;9.32;;;;;;;23.14;94.95;101035.19;5112891;28;20028;-67
2023/08/19 06:37:33;;;;;;;10.57;9.30;;;;;;;23.20;94.53;101033.66;5112959;28;20058;-67
2023/08/19 06:40:04;;;;;;;;;;;;;;;23.28;95.54;101039.88;5112692;28;20028;-67
2023/08/19 06:42:30;;;;;;;12.52;9.30;;;;;;;23.37;93.66;101048.00;5111716;28;20476;-67
2023/08/19 06:44:59;;;;;;;12.90;8.43;;;;;;;23.40;94.06;101047.66;5111539;28;20160;-67
2023/08/19 06:47:28;;;;;;;;;;;;;;;23.46;94.75;101052.38;5113310;28;20027;-67
2023/08/19 06:49:57;;;;;;;12.50;8.95;;;;;;;23.46;92.94;101052.38;5112566;28;20282;-67
2023/08/19 06:52:23;;;;;;;12.60;8.98;;;;;;;23.39;93.11;101048.69;5111070;28;20016;-67
2023/08/19 06:54:48;;;;;;;13.45;9.05;;;;;;;23.45;92.89;101058.84;5112257;28;20030;-67
2023/08/19 06:57:36;;;;;;;9.45;8.63;;;;;;;23.46;92.13;101065.97;5112987;28;20050;-67
2023/08/19 07:00:10;;;;;;;10.63;8.65;;;;;;;23.46;91.84;101064.09;5111210;28;20458;-67
2023/08/19 07:02:37;;;;;;;11.18;9.00;;;;;;;23.42;92.45;101056.47;5112928;28;20039;-67
2023/08/19 07:05:14;;;;;;;13.30;9.30;;;;;;;23.43;92.43;101072.56;5111349;28;20106;-67
2023/08/19 07:07:46;;;;;;;9.63;8.55;;;;;;;23.39;93.89;101071.25;5111256;28;20077;-67
2023/08/19 07:10:16;;;;;;;14.25;9.57;;;;;;;23.46;93.38;101074.09;5112064;28;20031;-67
2023/08/19 07:12:42;;;;;;;14.07;9.23;;;;;;;23.62;92.80;101071.34;5112468;28;20031;-67
2023/08/19 07:15:12;;;;;;;12.77;9.60;;;;;;;23.78;92.31;101073.97;5112546;28;20064;-67
2023/08/19 07:17:42;;;;;;;9.82;8.57;;;;;;;23.93;93.42;101079.50;5111314;28;20089;-67
2023/08/19 07:20:10;;;;;;;9.70;8.80;;;;;;;24.21;90.58;101073.56;5112644;28;20031;-67
2023/08/19 07:22:37;;;;;;;11.25;8.85;;;;;;;24.38;89.45;101072.41;5110816;28;20130;-67
2023/08/19 07:25:05;;;;;;;10.77;9.30;;;;;;;24.54;88.73;101076.06;5110614;28;20039;-67
2023/08/19 07:27:34;;;;;;;11.00;8.95;;;;;;;24.56;88.32;101074.88;5111298;28;20076;-67
2023/08/19 07:30:02;;;;;;;9.50;8.70;;;;;;;24.52;90.90;101057.19;5112226;28;20062;-67
2023/08/19 07:32:28;;;;;;;14.38;8.98;;;;;;;24.55;89.70;101062.28;5112522;28;20024;-67
2023/08/19 07:34:55;;;;;;;10.55;8.02;;;;;;;24.67;86.70;101076.28;5112069;28;20024;-67
2023/08/19 07:37:20;;;;;;;12.23;7.80;;;;;;;24.76;86.58;101091.50;5112047;28;20015;-67
2023/08/19 07:39:46;;;;;;;12.57;8.20;;;;;;;24.70;88.98;101093.06;5111656;28;20103;-67
2023/08/19 07:42:11;;;;;;;11.75;8.65;;;;;;;24.78;88.50;101091.31;5112205;28;20073;-67
2023/08/19 07:44:36;;;;;;;11.25;8.63;;;;;;;24.83;86.29;101089.75;5112303;28;20069;-67
2023/08/19 07:47:02;;;;;;;11.40;8.25;;;;;;;24.88;88.86;101100.06;5111008;28;20030;-67
2023/08/19 07:49:27;;;;;;;10.90;8.52;;;;;;;24.85;86.56;101104.00;5111802;28;20106;-67
2023/08/19 07:51:53;;;;;;;12.45;8.77;;;;;;;24.89;86.59;101124.38;5111899;28;20023;-67
2023/08/19 07:54:21;;;;;;;11.65;8.07;;;;;;;24.90;88.18;101117.91;5110334;28;20599;-67
2023/08/19 07:56:47;;;;;;;18.77;8.68;;;;;;;24.82;88.77;101119.84;5110837;28;20027;-67
2023/08/19 07:59:12;;;;;;;11.40;8.20;;;;;;;24.82;87.19;101104.38;5112001;28;20024;-67
2023/08/19 08:01:40;;;;;;;10.05;7.82;;;;;;;24.81;89.29;101099.97;5110863;28;20374;-67
2023/08/19 08:04:05;;;;;;;12.27;7.78;;;;;;;24.87;87.65;101103.81;5113615;28;20103;-67
2023/08/19 08:06:33;;;;;;;14.38;8.13;;;;;;;24.85;89.93;101116.75;5115645;28;20153;-67
2023/08/19 08:08:59;;;;;;;10.73;8.27;;;;;;;24.82;87.26;101098.09;5115655;28;20512;-67
2023/08/19 08:11:24;;;;;;;9.85;7.90;;;;;;;24.84;89.14;101123.25;5115739;28;20070;-67
2023/08/19 08:13:50;;;;;;;11.20;8.18;;;;;;;24.77;89.11;101131.31;5115589;28;20032;-67
2023/08/19 08:16:15;;;;;;;11.98;8.32;;;;;;;24.75;89.07;101116.19;5115759;28;20102;-67
2023/08/19 08:18:40;;;;;;;10.20;8.00;;;;;;;24.75;88.50;101121.63;5114139;28;20023;-67
2023/08/19 08:21:06;;;;;;;15.23;7.78;;;;;;;24.74;88.44;101119.91;5115599;28;20027;-67
2023/08/19 08:23:31;;;;;;;17.50;8.88;;;;;;;24.77;88.81;101125.03;5114872;28;20126;-67
2023/08/19 08:25:57;;;;;;;10.40;7.68;;;;;;;24.74;89.59;101133.50;5115528;28;20027;-67
2023/08/19 08:28:22;;;;;;;9.85;7.93;;;;;;;24.73;88.77;101145.44;5115537;28;20024;-67
2023/08/19 08:30:48;;;;;;;12.52;8.50;;;;;;;24.73;88.83;101138.13;5115319;28;20028;-67
2023/08/19 08:33:13;;;;;;;9.32;7.40;;;;;;;24.72;88.29;101130.16;5115475;28;20374;-67
2023/08/19 08:35:38;;;;;;;12.07;8.30;;;;;;;24.69;89.34;101153.97;5115066;28;20055;-67
2023/08/19 08:38:04;;;;;;;11.23;7.95;;;;;;;24.68;90.90;101171.31;5113986;28;20030;-67
2023/08/19 08:40:32;;;;;;;11.88;8.23;;;;;;;24.59;91.70;101166.97;5113342;28;20103;-66
2023/08/19 08:43:02;;;;;;;9.10;7.45;;;;;;;24.55;91.63;101154.75;5115259;28;20406;-67
2023/08/19 08:45:31;;;;;;;13.60;8.18;;;;;;;24.63;90.45;101167.44;5115101;28;20015;-67
2023/08/19 08:47:56;;;;;;;11.48;7.82;;;;;;;24.62;91.26;101153.00;5113850;28;20039;-67
2023/08/19 08:50:22;;;;;;;9.70;8.73;;;;;;;24.64;92.83;101169.13;5114451;27;20058;-67
2023/08/19 08:52:50;;;;;;;10.38;8.27;;;;;;;24.63;92.43;101171.00;5113602;28;20026;-67
2023/08/19 08:55:16;;;;;;;11.30;8.63;;;;;;;24.68;90.94;101181.38;5114376;28;20067;-67
2023/08/19 08:57:41;;;;;;;11.52;8.60;;;;;;;24.66;92.01;101191.56;5113714;28;20055;-67
2023/08/19 09:00:08;;;;;;;11.55;8.10;;;;;;;24.73;91.64;101197.97;5114934;28;20024;-67
2023/08/19 09:02:38;;;;;;;10.57;8.35;;;;;;;24.73;91.98;101206.13;5114684;28;20061;-67
2023/08/19 09:05:05;;;;;;;10.68;8.52;;;;;;;24.76;91.91;101203.03;5114230;28;20015;-67
2023/08/19 09:07:39;;;;;;;10.60;8.68;;;;;;;24.78;91.86;101211.03;5114637;28;20382;-67
2023/08/19 09:10:12;;;;;;;11.80;8.60;;;;;;;24.89;91.52;101214.19;5112858;28;20028;-67
2023/08/19 09:12:42;;;;;;;15.68;9.07;;;;;;;25.02;89.85;101218.16;5114764;28;20027;-67
2023/08/19 09:15:09;;;;;;;12.40;9.30;;;;;;;24.99;89.85;101216.66;5114418;28;20029;-67
2023/08/19 09:17:36;;;;;;;14.30;9.20;;;;;;;25.06;90.02;101214.91;5114302;27;20024;-67
2023/08/19 09:20:03;;;;;;;14.52;9.60;;;;;;;25.17;91.66;101216.38;5112990;28;20019;-67
2023/08/19 09:22:31;;;;;;;14.07;10.43;;;;;;;25.20;90.28;101212.44;5114137;28;20071;-67
2023/08/19 09:24:57;;;;;;;13.38;10.27;;;;;;;25.26;89.37;101225.31;5112601;28;20024;-67
2023/08/19 09:27:27;;;;;;;13.02;10.85;;;;;;;25.28;88.45;101231.41;5114478;28;20039;-67
2023/08/19 09:29:53;;;;;;;13.65;11.23;;;;;;;25.25;90.10;101231.78;5114063;28;20027;-67
2023/08/19 09:32:29;;;;;;;14.02;11.20;;;;;;;25.35;89.14;101237.81;5114146;28;20509;-66
2023/08/19 09:35:20;;;;;;;13.80;12.40;;;;;;;25.48;88.11;101234.47;5112729;28;20023;-67
2023/08/19 09:37:46;;;;;;;15.07;11.40;;;;;;;25.55;87.55;101247.16;5108941;28;20521;-67
2023/08/19 09:40:17;;;;;;;16.92;11.23;;;;;;;25.80;89.05;101249.66;5113587;28;20062;-67
2023/08/19 09:42:49;;;;;;;13.07;11.75;;;;;;;25.89;87.63;101251.28;5114057;28;20042;-67
2023/08/19 09:45:19;;;;;;;15.32;11.02;;;;;;;26.17;87.36;101247.88;5112754;28;20027;-67
2023/08/19 09:47:49;;;;;;;21.83;11.88;;;;;;;26.36;86.08;101263.66;5113830;28;20493;-66
2023/08/19 09:50:16;;;;;;;12.75;11.45;;;;;;;26.46;86.41;101277.00;5113796;28;20485;-66
2023/08/19 09:52:41;;;;;;;13.65;11.88;;;;;;;26.48;84.67;101272.19;5112589;28;20019;-67
2023/08/19 09:55:07;;;;;;;13.90;12.50;;;;;;;26.44;82.42;101276.31;5112189;28;20038;-67
2023/08/19 09:57:34;;;;;;;14.43;11.68;;;;;;;26.43;83.63;101283.66;5113859;28;20058;-66
2023/08/19 10:00:00;;;;;;;18.23;13.82;;;;;;;26.76;81.65;101291.44;5112383;28;20110;-67
2023/08/19 10:02:28;;;;;;;12.93;11.35;;;;;;;26.95;81.55;101288.09;5112285;28;20398;-67
2023/08/19 10:04:55;;;;;;;14.47;11.17;;;;;;;26.90;81.70;101286.97;5113577;28;20023;-67
2023/08/19 10:07:32;;;;;;;11.75;10.55;;;;;;;26.90;82.27;101298.75;5112324;28;20474;-66
2023/08/19 10:10:03;;;;;;;15.82;10.27;;;;;;;26.85;80.81;101298.47;5111635;28;20115;-67
2023/08/19 10:12:32;;;;;;;11.75;10.43;;;;;;;26.71;81.13;101296.66;5113506;28;20054;-66
2023/08/19 10:14:59;;;;;;;13.43;10.93;;;;;;;26.65;80.75;101302.84;5111927;28;20024;-66
2023/08/19 10:17:25;;;;;;;13.70;10.45;;;;;;;26.58;80.97;101299.22;5112054;28;20030;-66
2023/08/19 10:20:05;;;;;;;12.65;10.75;;;;;;;26.65;82.90;101303.72;5111840;28;20433;-66
2023/08/19 10:22:34;;;;;;;14.52;11.65;;;;;;;26.86;81.45;101311.09;5113355;28;20024;-66
2023/08/19 10:25:00;;;;;;;11.70;10.50;;;;;;;27.17;79.81;101313.53;5112576;28;20020;-67
2023/08/19 10:27:26;;;;;;;14.02;11.73;;;;;;;27.33;77.88;101325.28;5111668;28;20023;-67
2023/08/19 10:29:58;;;;;;;15.30;11.73;;;;;;;27.28;78.28;101325.00;5112790;28;20023;-67
2023/08/19 10:32:32;;;;;;;14.07;12.65;;;;;;;27.12;78.84;101320.59;5113185;28;20494;-67
2023/08/19 10:35:08;;;;;;;14.27;12.23;;;;;;;27.09;78.50;101327.31;5112866;28;20424;-67
2023/08/19 10:37:41;;;;;;;12.45;10.85;;;;;;;27.03;78.27;101319.91;5112899;28;20084;-67
2023/08/19 10:40:14;;;;;;;13.02;10.25;;;;;;;27.11;77.39;101324.38;5112681;28;20381;-67
2023/08/19 10:42:39;;;;;;;11.80;10.05;;;;;;;26.98;78.13;101340.63;5112913;28;20030;-67
2023/08/19 10:45:18;;;;;;;17.42;10.15;;;;;;;26.88;78.62;101346.38;5112524;28;20015;-67
2023/08/19 10:47:44;;;;;;;11.77;9.30;;;;;;;26.76;78.30;101346.03;5112960;28;20102;-67
2023/08/19 10:50:11;;;;;;;12.45;11.15;;;;;;;26.61;79.31;101348.78;5111608;28;20051;-67
2023/08/19 10:53:00;;;;;;;13.18;10.45;;;;;;;26.61;79.77;101362.41;5112973;28;20027;-67
2023/08/19 10:55:25;;;;;;;11.60;10.30;;;;;;;26.47;80.51;101377.75;5112142;28;20461;-67
2023/08/19 10:57:51;;;;;;;12.68;11.35;;;;;;;26.30;81.46;101365.34;5111375;28;20027;-67
2023/08/19 11:00:22;;;;;;;12.57;11.38;;;;;;;26.25;82.29;101368.63;5110974;28;20414;-67
2023/08/19 11:02:49;;;;;;;13.40;12.00;;;;;;;26.25;83.66;101374.06;5112583;28;20024;-67
2023/08/19 11:05:23;;;;;;;15.90;13.73;;;;;;;26.11;82.26;101372.16;5112503;28;20027;-67
2023/08/19 11:07:50;;;;;;;16.95;15.23;;;;;;;26.10;82.11;101372.38;5111023;28;20050;-67
2023/08/19 11:10:15;;;;;;;15.98;13.73;;;;;;;25.98;83.08;101375.53;5110688;28;20126;-67